Dallas, TX

9:22 PM CDT on September 23, 2018 (GMT -0500)
Espen's Weather | | Change Station
Active Advisory: Flood Warning

Elev 492 ft 32.80 °N, 96.81 °W | Updated 3 minutes ago

Overcast
Overcast
72.5 °F
Feels Like 72 °F
N
1
Wind Variable Wind from ESE
Gusts 0.0 mph

Today
High -- | Low -- °F
--% Chance of Precip.
Yesterday
High -- | Low -- °F
Precip. -- in
Pressure 29.87 in
Visibility 10.0 miles
Clouds Overcast 1400 ft
Heat Index 72 °F
Dew Point 67 °F
Humidity 83%
Rainfall 0.05 in
Snow Depth Not available.
7:16 AM 7:22 PM
Waxing Gibbous, 99% visible
SPECI KRBD 240041Z 34004KT 10SM OVC014 22/20 A2987 RMK AO2 T02170200
Pressure 29.87 in
Visibility 10.0 miles
Clouds Overcast 1400 ft
Heat Index 72 °F
Dew Point 67 °F
Humidity 83%
Rainfall 0.05 in
Snow Depth Not available.
7:16 AM 7:22 PM
Waxing Gibbous, 99% visible
SPECI KRBD 240041Z 34004KT 10SM OVC014 22/20 A2987 RMK AO2 T02170200

Get Your Daily Forecast Email!

Thanks for signing up!

Be on the lookout for a verification email in your inbox.

You'll start receiving severe weather alerts in your inbox..

×

10-Day Weather Forecast

Almanac

Astronomy

Sep. 23, 2018 Rise Set
Actual Time
Civil Twilight
Nautical Twilight
Astronomical Twilight
Moon
Length of Visible Light
Length of Day
Tomorrow will be .
, % of the Moon is Illuminated

Today's Extremes

State Highs State Lows

Community

WunderPhotos

Category 6

Welcome to Category 6. This is the collective home for Weather Underground's featured writeups by Dr. Jeff Masters (right), Bob Henson (left), Chris Burt, and other regular contributors.

Nearby

Air Quality

  Air Quality AQ Index Pollutant
Not available.

Snow Depth

Station Depth Elevation

Earthquake Activity

City Distance Mag. Time & Date
Minimum magnitude displayed is 2.5.

Coastal Water Temperatures

Place Temperature

Stations

Nearby Weather Stations

Station Location Temp. Windchill Dew Point Humidity Wind Precip. Elev Updated Type
                   

Watches & Warnings

Flood Warning
Issued: 8:49 PM CDT Sep. 23, 2018 – National Weather Service

The Flood Warning continues for
the Trinity River at Dallas.
* At 0800 PM Sunday the stage was 36.26 feet.
* Flood stage is 30 feet.
* Minor flooding is occurring and minor flooding is forecast.
* Forecast... the river has crested and will continue to recede and
fall below flood stage by early Monday morning.


Lat... Lon 3275 9693 3281 9693 3283 9683 3275 9671
      3269 9676 3278 9687